createdAt,value
2018-09-19T00:00:32.083Z,11.83
2018-09-19T00:03:00.885Z,11.20
2018-09-19T00:05:29.762Z,12.40
2018-09-19T00:07:58.592Z,12.80
2018-09-19T00:10:27.423Z,11.70
2018-09-19T00:12:56.196Z,12.90
2018-09-19T00:15:25.056Z,12.53
2018-09-19T00:17:53.835Z,12.20
2018-09-19T00:20:22.794Z,12.70
2018-09-19T00:22:51.475Z,11.90
2018-09-19T00:25:20.412Z,13.07
2018-09-19T00:27:49.320Z,12.20
2018-09-19T00:30:18.104Z,12.13
2018-09-19T00:32:47.585Z,11.53
2018-09-19T00:35:16.426Z,12.37
2018-09-19T00:37:45.262Z,12.70
2018-09-19T00:40:14.088Z,12.10
2018-09-19T00:42:42.929Z,12.10
2018-09-19T00:45:12.204Z,11.90
2018-09-19T00:47:40.982Z,11.67
2018-09-19T00:50:09.879Z,11.33
2018-09-19T00:52:38.684Z,12.47
2018-09-19T00:55:07.472Z,11.33
2018-09-19T00:57:36.271Z,10.87
2018-09-19T01:00:06.116Z,12.63
2018-09-19T01:02:35.427Z,13.03
2018-09-19T01:05:05.176Z,12.20
2018-09-19T01:07:33.978Z,13.40
2018-09-19T01:10:02.798Z,12.73
2018-09-19T01:12:31.612Z,12.37
2018-09-19T01:15:00.535Z,12.10
2018-09-19T01:17:29.321Z,13.40
2018-09-19T01:19:58.096Z,11.97
2018-09-19T01:22:26.995Z,12.30
2018-09-19T01:24:55.798Z,11.10
2018-09-19T01:27:24.723Z,11.80
2018-09-19T01:29:53.519Z,12.30
2018-09-19T01:32:22.324Z,12.33
2018-09-19T01:34:51.106Z,12.57
2018-09-19T01:37:19.885Z,11.60
2018-09-19T01:39:48.786Z,12.50
2018-09-19T01:42:17.649Z,12.73
2018-09-19T01:44:46.434Z,12.13
2018-09-19T01:47:15.217Z,11.53
2018-09-19T01:49:44.004Z,12.20
2018-09-19T01:52:12.950Z,13.20
2018-09-19T01:54:41.749Z,12.10
2018-09-19T01:57:10.574Z,12.23
2018-09-19T01:59:39.367Z,12.37
2018-09-19T02:02:08.178Z,12.13
2018-09-19T02:04:37.003Z,12.80
2018-09-19T02:07:06.000Z,11.77
2018-09-19T02:09:34.828Z,13.20
2018-09-19T02:12:03.659Z,11.73
2018-09-19T02:14:32.583Z,10.53
2018-09-19T02:17:01.481Z,21.10
2018-09-19T02:19:30.313Z,12.63
2018-09-19T02:21:59.118Z,12.00
2018-09-19T02:24:27.950Z,15.10
2018-09-19T02:26:56.967Z,12.67
2018-09-19T02:29:25.777Z,11.80
2018-09-19T02:31:54.584Z,11.70
2018-09-19T02:34:23.407Z,12.03
2018-09-19T02:36:52.222Z,12.33
2018-09-19T02:39:21.151Z,13.27
2018-09-19T02:41:49.946Z,11.37
2018-09-19T02:44:18.722Z,13.27
2018-09-19T02:46:47.676Z,13.07
2018-09-19T02:49:16.479Z,10.77
2018-09-19T02:51:45.285Z,12.67
2018-09-19T02:54:14.097Z,12.33
2018-09-19T02:56:42.928Z,12.57
2018-09-19T02:59:14.597Z,12.57
2018-09-19T03:01:43.466Z,12.03
2018-09-19T03:04:12.354Z,16.67
2018-09-19T03:06:41.236Z,11.80
2018-09-19T03:09:10.026Z,12.17
2018-09-19T03:11:38.845Z,12.50
2018-09-19T03:14:07.852Z,12.03
2018-09-19T03:16:36.702Z,12.33
2018-09-19T03:19:05.579Z,12.90
2018-09-19T03:21:34.494Z,12.50
2018-09-19T03:24:03.324Z,12.27
2018-09-19T03:26:32.158Z,13.07
2018-09-19T03:29:00.963Z,12.00
2018-09-19T03:31:29.799Z,12.10
2018-09-19T03:33:58.723Z,12.03
2018-09-19T03:36:27.632Z,13.07
2018-09-19T03:38:56.405Z,13.57
2018-09-19T03:41:25.297Z,12.40
2018-09-19T03:43:54.114Z,12.07
2018-09-19T03:46:22.990Z,11.67
2018-09-19T03:48:51.775Z,13.43
2018-09-19T03:51:20.676Z,11.87
2018-09-19T03:53:49.452Z,12.87
2018-09-19T03:56:18.344Z,13.77
2018-09-19T03:58:47.146Z,12.03
2018-09-19T04:01:15.932Z,12.30
2018-09-19T04:03:44.782Z,12.77
2018-09-19T04:06:13.591Z,14.57
2018-09-19T04:08:42.566Z,13.90
2018-09-19T04:11:11.364Z,13.10
2018-09-19T04:13:40.174Z,13.30
2018-09-19T04:16:09.099Z,11.70
2018-09-19T04:18:37.890Z,12.63
2018-09-19T04:21:06.729Z,12.90
2018-09-19T04:23:35.518Z,13.80
2018-09-19T04:26:04.695Z,13.50
2018-09-19T04:28:33.509Z,13.30
2018-09-19T04:31:02.357Z,14.63
2018-09-19T04:33:31.182Z,13.87
2018-09-19T04:36:00.083Z,14.07
2018-09-19T04:38:28.901Z,13.07
2018-09-19T04:40:57.747Z,13.50
2018-09-19T04:43:26.574Z,12.57
2018-09-19T04:45:55.457Z,13.10
2018-09-19T04:48:24.254Z,12.13
2018-09-19T04:50:53.058Z,15.00
2018-09-19T04:53:21.914Z,12.07
2018-09-19T04:55:50.743Z,14.17
2018-09-19T04:58:19.656Z,12.57
2018-09-19T05:00:48.458Z,12.90
2018-09-19T05:03:17.240Z,15.10
2018-09-19T05:05:46.207Z,13.20
2018-09-19T05:08:14.977Z,12.77
2018-09-19T05:10:43.776Z,14.97
2018-09-19T05:13:12.576Z,12.47
2018-09-19T05:15:41.431Z,12.87
2018-09-19T05:18:10.255Z,12.83
2018-09-19T05:20:39.072Z,13.20
2018-09-19T05:23:07.902Z,15.13
2018-09-19T05:25:36.765Z,14.37
2018-09-19T05:28:05.651Z,14.33
2018-09-19T05:30:34.432Z,14.83
2018-09-19T05:33:03.326Z,13.37
2018-09-19T05:35:32.125Z,13.30
2018-09-19T05:38:00.904Z,13.50
2018-09-19T05:40:29.731Z,13.17
2018-09-19T05:42:58.531Z,13.20
2018-09-19T05:45:27.487Z,13.43
2018-09-19T05:47:56.310Z,13.53
2018-09-19T05:50:25.130Z,14.77
2018-09-19T05:52:53.934Z,15.50
2018-09-19T05:55:22.883Z,13.80
2018-09-19T05:57:51.694Z,13.90
2018-09-19T06:00:25.273Z,13.23
2018-09-19T06:02:57.276Z,14.10
2018-09-19T06:05:26.644Z,13.70
2018-09-19T06:07:55.450Z,15.13
2018-09-19T06:10:24.261Z,17.77
2018-09-19T06:12:53.091Z,16.97
2018-09-19T06:15:21.964Z,14.57
2018-09-19T06:17:50.838Z,16.53
2018-09-19T06:20:19.751Z,17.87
2018-09-19T06:22:48.566Z,16.93
2018-09-19T06:25:17.418Z,17.27
2018-09-19T06:27:46.251Z,16.67
2018-09-19T06:30:15.034Z,15.70
2018-09-19T06:32:43.880Z,16.43
2018-09-19T06:35:12.730Z,18.20
2018-09-19T06:37:41.499Z,18.30
2018-09-19T06:40:10.499Z,16.87
2018-09-19T06:42:39.204Z,15.33
2018-09-19T06:45:08.060Z,16.73
2018-09-19T06:47:36.858Z,16.07
2018-09-19T06:50:05.730Z,16.73
2018-09-19T06:52:34.623Z,16.67
2018-09-19T06:55:03.396Z,17.67
2018-09-19T06:57:32.352Z,17.00
2018-09-19T07:00:01.151Z,17.20
2018-09-19T07:02:29.947Z,17.23
2018-09-19T07:04:59.764Z,16.77
2018-09-19T07:07:28.581Z,17.47
2018-09-19T07:09:57.423Z,18.10
2018-09-19T07:12:26.232Z,17.83
2018-09-19T07:14:55.044Z,17.63
2018-09-19T07:17:23.849Z,19.33
2018-09-19T07:19:52.664Z,16.17
2018-09-19T07:22:21.466Z,18.33
2018-09-19T07:24:50.272Z,19.73
2018-09-19T07:27:19.074Z,17.90
2018-09-19T07:29:47.903Z,18.70
2018-09-19T07:32:16.725Z,17.00
2018-09-19T07:34:45.525Z,17.73
2018-09-19T07:37:14.355Z,17.27
2018-09-19T07:39:43.188Z,19.90
2018-09-19T07:42:11.980Z,18.30
2018-09-19T07:44:40.822Z,19.20
2018-09-19T07:47:09.681Z,17.43
2018-09-19T07:49:38.472Z,16.97
2018-09-19T07:52:07.451Z,17.00
2018-09-19T07:54:36.357Z,19.67
2018-09-19T07:57:05.280Z,16.53
2018-09-19T07:59:34.118Z,19.40
2018-09-19T08:02:02.991Z,17.00
2018-09-19T08:04:31.787Z,16.53
2018-09-19T08:07:00.623Z,17.43
2018-09-19T08:09:29.424Z,16.87
2018-09-19T08:11:58.222Z,16.93
2018-09-19T08:14:27.034Z,17.60
2018-09-19T08:16:55.920Z,19.80
2018-09-19T08:19:24.652Z,17.27
2018-09-19T08:21:53.480Z,31.33
2018-09-19T08:24:22.274Z,17.77
2018-09-19T08:26:51.151Z,17.47
2018-09-19T08:29:19.937Z,19.17
2018-09-19T08:31:48.736Z,17.80
2018-09-19T08:34:17.521Z,15.97
2018-09-19T08:36:46.352Z,17.87
2018-09-19T08:39:15.160Z,15.57
2018-09-19T08:41:43.958Z,16.40
2018-09-19T08:44:12.874Z,19.57
2018-09-19T08:46:41.727Z,15.90
2018-09-19T08:49:10.507Z,16.50
2018-09-19T08:51:39.319Z,15.07
2018-09-19T08:54:08.123Z,16.47
2018-09-19T08:56:37.066Z,16.37
2018-09-19T08:59:09.638Z,16.10
2018-09-19T09:01:39.269Z,18.23
2018-09-19T09:04:08.101Z,15.67
2018-09-19T09:06:36.960Z,14.97
2018-09-19T09:09:07.015Z,15.37
2018-09-19T09:11:36.048Z,15.40
2018-09-19T09:14:04.915Z,15.37
2018-09-19T09:16:33.730Z,16.07
2018-09-19T09:19:02.526Z,15.17
2018-09-19T09:21:31.462Z,15.23
2018-09-19T09:24:00.230Z,15.60
2018-09-19T09:26:29.090Z,14.10
2018-09-19T09:28:57.901Z,13.57
2018-09-19T09:31:26.693Z,14.50
2018-09-19T09:33:55.528Z,15.20
2018-09-19T09:36:24.339Z,15.30
2018-09-19T09:38:53.114Z,13.93
2018-09-19T09:41:21.915Z,14.87
2018-09-19T09:43:50.721Z,14.57
2018-09-19T09:46:19.533Z,17.57
2018-09-19T09:48:48.343Z,16.20
2018-09-19T09:51:17.127Z,15.97
2018-09-19T09:53:45.930Z,14.07
2018-09-19T09:56:14.775Z,15.50
2018-09-19T09:58:43.575Z,15.83
2018-09-19T10:01:12.440Z,13.93
2018-09-19T10:03:41.172Z,14.70
2018-09-19T10:06:10.118Z,15.07
2018-09-19T10:08:38.920Z,13.53
2018-09-19T10:11:08.024Z,14.27
2018-09-19T10:13:36.886Z,14.40
2018-09-19T10:16:05.798Z,14.30
2018-09-19T10:18:34.611Z,13.30
2018-09-19T10:21:03.422Z,12.57
2018-09-19T10:23:32.213Z,12.80
2018-09-19T10:26:01.079Z,13.00
2018-09-19T10:28:29.889Z,13.57
2018-09-19T10:30:58.714Z,13.40
2018-09-19T10:33:27.518Z,14.63
2018-09-19T10:35:56.415Z,13.10
2018-09-19T10:38:25.222Z,14.23
2018-09-19T10:40:54.039Z,12.73
2018-09-19T10:43:22.855Z,14.90
2018-09-19T10:45:51.758Z,14.30
2018-09-19T10:48:20.580Z,14.03
2018-09-19T10:50:49.403Z,13.27
2018-09-19T10:53:18.207Z,13.60
2018-09-19T10:55:47.133Z,13.70
2018-09-19T10:58:15.946Z,13.93
2018-09-19T11:00:44.760Z,13.40
2018-09-19T11:03:13.576Z,14.73
2018-09-19T11:05:42.571Z,13.87
2018-09-19T11:08:11.422Z,14.43
2018-09-19T11:10:40.247Z,13.40
2018-09-19T11:13:09.176Z,12.87
2018-09-19T11:15:38.035Z,15.23
2018-09-19T11:18:06.856Z,14.70
2018-09-19T11:20:35.740Z,13.60
2018-09-19T11:23:04.607Z,14.60
2018-09-19T11:25:33.523Z,13.60
2018-09-19T11:28:02.383Z,13.00
2018-09-19T11:30:31.207Z,12.50
2018-09-19T11:33:00.054Z,13.13
2018-09-19T11:35:29.055Z,14.03
2018-09-19T11:38:00.099Z,13.40
2018-09-19T11:40:28.878Z,13.50
2018-09-19T11:42:57.707Z,14.23
2018-09-19T11:45:26.543Z,12.50
2018-09-19T11:47:55.352Z,12.50
2018-09-19T11:50:24.202Z,12.03
2018-09-19T11:52:53.665Z,14.00
2018-09-19T11:55:22.551Z,13.13
2018-09-19T11:57:51.359Z,12.50
2018-09-19T12:00:22.519Z,12.73
2018-09-19T12:02:56.539Z,11.77
2018-09-19T12:05:25.419Z,12.57
2018-09-19T12:07:54.231Z,12.33
2018-09-19T12:10:23.040Z,12.90
2018-09-19T12:12:51.854Z,12.23
2018-09-19T12:15:20.722Z,12.13
2018-09-19T12:17:49.525Z,13.23
2018-09-19T12:20:18.323Z,13.40
2018-09-19T12:22:47.150Z,12.87
2018-09-19T12:25:15.982Z,12.10
2018-09-19T12:27:44.798Z,12.30
2018-09-19T12:30:13.599Z,13.10
2018-09-19T12:32:42.415Z,14.00
2018-09-19T12:35:11.266Z,11.90
2018-09-19T12:37:40.104Z,13.60
2018-09-19T12:40:09.383Z,12.30
2018-09-19T12:42:38.206Z,12.67
2018-09-19T12:45:07.107Z,12.57
2018-09-19T12:47:35.944Z,12.80
2018-09-19T12:50:04.824Z,13.70
2018-09-19T12:52:34.031Z,12.70
2018-09-19T12:55:02.881Z,13.03
2018-09-19T12:57:31.704Z,13.00
2018-09-19T13:00:00.514Z,12.10
2018-09-19T13:02:29.338Z,13.30
2018-09-19T13:04:58.210Z,13.37
2018-09-19T13:07:27.023Z,12.73
2018-09-19T13:09:55.814Z,13.10
2018-09-19T13:12:24.602Z,13.00
2018-09-19T13:14:53.399Z,12.10
2018-09-19T13:17:22.218Z,12.10
2018-09-19T13:19:51.031Z,12.30
2018-09-19T13:22:19.826Z,12.17
2018-09-19T13:24:48.675Z,13.00
2018-09-19T13:27:17.507Z,14.23
2018-09-19T13:29:58.471Z,15.77
2018-09-19T13:32:27.327Z,17.93
2018-09-19T13:34:56.098Z,22.17
2018-09-19T13:37:24.919Z,22.03
2018-09-19T13:39:53.810Z,26.03
2018-09-19T13:42:22.718Z,24.37
2018-09-19T13:44:51.507Z,18.93
2018-09-19T13:47:20.310Z,18.47
2018-09-19T13:51:02.518Z,17.20
2018-09-19T13:53:31.454Z,18.80
2018-09-19T13:56:00.502Z,19.80
2018-09-19T13:58:29.347Z,19.07
2018-09-19T14:00:58.158Z,21.60
2018-09-19T14:03:27.124Z,21.20
2018-09-19T14:05:55.976Z,19.27
2018-09-19T14:08:24.778Z,19.43
2018-09-19T14:10:53.598Z,19.83
2018-09-19T14:13:22.416Z,18.23
2018-09-19T14:15:51.235Z,17.00
2018-09-19T14:18:20.034Z,17.87
2018-09-19T14:20:48.847Z,17.53
2018-09-19T14:23:17.799Z,19.43
2018-09-19T14:25:46.695Z,18.10
2018-09-19T14:28:15.546Z,19.27
2018-09-19T14:30:44.511Z,18.73
2018-09-19T14:33:13.385Z,17.70
2018-09-19T14:35:42.406Z,15.60
2018-09-19T14:38:11.787Z,17.40
2018-09-19T14:40:40.627Z,18.07
2018-09-19T14:43:09.475Z,17.10
2018-09-19T14:45:38.308Z,16.10
2018-09-19T14:48:07.128Z,16.20
2018-09-19T14:50:35.949Z,15.83
2018-09-19T14:53:04.894Z,16.03
2018-09-19T14:55:33.797Z,15.70
2018-09-19T14:58:02.625Z,16.90
2018-09-19T15:00:33.136Z,16.20
2018-09-19T15:03:02.589Z,15.60
2018-09-19T15:05:31.538Z,17.17
2018-09-19T15:08:00.432Z,18.50
2018-09-19T15:10:29.219Z,16.80
2018-09-19T15:12:58.046Z,17.00
2018-09-19T15:15:26.935Z,17.23
2018-09-19T15:17:55.865Z,17.00
2018-09-19T15:20:24.673Z,15.97
2018-09-19T15:22:53.495Z,16.57
2018-09-19T15:25:22.475Z,17.20
2018-09-19T15:27:51.295Z,18.70
2018-09-19T15:30:20.124Z,17.93
2018-09-19T15:32:48.953Z,18.57
2018-09-19T15:35:17.791Z,18.33
2018-09-19T15:37:46.603Z,15.80
2018-09-19T15:40:15.454Z,17.37
2018-09-19T15:42:44.254Z,16.57
2018-09-19T15:45:13.152Z,17.90
2018-09-19T15:47:42.083Z,17.73
2018-09-19T15:50:10.915Z,16.97
2018-09-19T15:52:39.707Z,25.93
2018-09-19T15:55:08.647Z,18.03
2018-09-19T15:57:37.479Z,17.77
2018-09-19T16:00:07.723Z,16.00
2018-09-19T16:02:36.954Z,18.00
2018-09-19T16:05:05.845Z,16.50
2018-09-19T16:07:34.738Z,17.23
2018-09-19T16:10:03.638Z,16.67
2018-09-19T16:12:32.483Z,18.53
2018-09-19T16:15:01.402Z,18.83
2018-09-19T16:17:30.210Z,18.97
2018-09-19T16:19:59.854Z,17.23
2018-09-19T16:22:28.719Z,17.77
2018-09-19T16:24:57.704Z,17.80
2018-09-19T16:27:26.515Z,18.93
2018-09-19T16:29:55.327Z,19.33
2018-09-19T16:32:24.267Z,17.70
2018-09-19T16:34:54.058Z,18.70
2018-09-19T16:37:22.932Z,17.87
2018-09-19T16:39:51.788Z,18.10
2018-09-19T16:42:20.611Z,20.20
2018-09-19T16:44:50.292Z,20.13
2018-09-19T16:47:19.208Z,18.20
2018-09-19T16:49:48.124Z,17.87
2018-09-19T16:52:16.962Z,17.90
2018-09-19T16:54:45.786Z,16.23
2018-09-19T16:57:14.739Z,18.03
2018-09-19T16:59:46.532Z,18.20
2018-09-19T17:02:15.392Z,20.30
2018-09-19T17:04:44.258Z,19.20
2018-09-19T17:07:13.110Z,19.90
2018-09-19T17:09:41.931Z,18.67
2018-09-19T17:12:10.750Z,19.33
2018-09-19T17:14:41.695Z,18.80
2018-09-19T17:17:12.508Z,18.50
2018-09-19T17:19:41.363Z,18.50
2018-09-19T17:22:15.215Z,20.27
2018-09-19T17:24:44.112Z,19.37
2018-09-19T17:27:13.047Z,20.63
2018-09-19T17:29:42.083Z,21.83
2018-09-19T17:32:10.970Z,19.70
2018-09-19T17:34:39.935Z,20.90
2018-09-19T17:37:08.873Z,21.27
2018-09-19T17:39:37.965Z,20.03
2018-09-19T17:42:07.647Z,19.97
2018-09-19T17:44:36.533Z,20.10
2018-09-19T17:47:06.204Z,18.43
2018-09-19T17:49:35.146Z,23.37
2018-09-19T17:52:04.694Z,20.60
2018-09-19T17:54:33.603Z,21.17
2018-09-19T17:57:04.511Z,21.80
2018-09-19T17:59:33.381Z,20.17
2018-09-19T18:02:02.478Z,22.50
2018-09-19T18:04:31.487Z,21.50
2018-09-19T18:07:00.552Z,20.67
2018-09-19T18:09:30.219Z,20.77
2018-09-19T18:11:59.129Z,22.67
2018-09-19T18:14:27.987Z,22.17
2018-09-19T18:16:56.939Z,20.90
2018-09-19T18:19:25.767Z,22.80
2018-09-19T18:21:54.679Z,22.03
2018-09-19T18:24:23.560Z,21.63
2018-09-19T18:26:52.483Z,22.07
2018-09-19T18:29:22.196Z,22.73
2018-09-19T18:31:51.049Z,20.90
2018-09-19T18:34:19.936Z,22.27
2018-09-19T18:36:48.846Z,22.13
2018-09-19T18:39:18.330Z,23.97
2018-09-19T18:41:47.638Z,21.33
2018-09-19T18:44:16.459Z,22.43
2018-09-19T18:46:45.346Z,21.40
2018-09-19T18:49:14.207Z,20.47
2018-09-19T18:51:43.635Z,23.70
2018-09-19T18:54:12.565Z,22.33
2018-09-19T18:56:41.872Z,22.20
2018-09-19T18:59:13.418Z,22.63
2018-09-19T19:01:42.330Z,22.73
2018-09-19T19:04:11.459Z,22.27
2018-09-19T19:06:40.363Z,22.83
2018-09-19T19:09:10.187Z,21.90
2018-09-19T19:11:39.013Z,21.17
2018-09-19T19:14:08.826Z,22.03
2018-09-19T19:16:37.839Z,22.37
2018-09-19T19:19:06.687Z,22.53
2018-09-19T19:21:35.545Z,21.37
2018-09-19T19:24:05.664Z,21.77
2018-09-19T19:26:34.554Z,21.73
2018-09-19T19:29:03.995Z,20.57
2018-09-19T19:31:32.838Z,20.70
2018-09-19T19:34:02.824Z,22.00
2018-09-19T19:36:32.785Z,20.30
2018-09-19T19:39:01.615Z,22.03
2018-09-19T19:41:30.702Z,19.43
2018-09-19T19:43:59.531Z,20.50
2018-09-19T19:46:30.155Z,19.77
2018-09-19T19:48:59.000Z,20.87
2018-09-19T19:51:27.850Z,21.53
2018-09-19T19:53:56.707Z,22.37
2018-09-19T19:56:26.903Z,22.97
2018-09-19T19:58:58.090Z,19.77
2018-09-19T20:01:26.943Z,22.47
2018-09-19T20:03:55.768Z,20.43
2018-09-19T20:06:25.527Z,21.70
2018-09-19T20:08:54.362Z,21.97
2018-09-19T20:11:23.326Z,21.00
2018-09-19T20:13:52.555Z,20.47
2018-09-19T20:16:21.498Z,21.23
2018-09-19T20:18:50.340Z,17.57
2018-09-19T20:21:19.175Z,20.03
2018-09-19T20:23:48.859Z,21.13
2018-09-19T20:26:17.866Z,21.30
2018-09-19T20:28:46.727Z,20.20
2018-09-19T20:31:15.602Z,21.77
2018-09-19T20:33:44.424Z,21.13
2018-09-19T20:36:13.414Z,21.40
2018-09-19T20:38:42.394Z,19.20
2018-09-19T20:41:11.287Z,20.30
2018-09-19T20:43:40.111Z,19.37
2018-09-19T20:46:09.095Z,20.93
2018-09-19T20:48:37.938Z,20.87
2018-09-19T20:51:09.843Z,21.30
2018-09-19T20:53:38.680Z,19.50
2018-09-19T20:56:08.020Z,20.50
2018-09-19T20:58:37.411Z,19.30
2018-09-19T21:01:06.523Z,19.30
2018-09-19T21:03:35.366Z,21.90
2018-09-19T21:06:04.312Z,22.63
2018-09-19T21:08:33.314Z,22.47
2018-09-19T21:11:02.175Z,20.10
2018-09-19T21:13:30.985Z,19.77
2018-09-19T21:15:59.889Z,20.23
2018-09-19T21:18:29.503Z,19.73
2018-09-19T21:20:58.795Z,20.40
2018-09-19T21:23:27.635Z,19.83
2018-09-19T21:25:56.552Z,20.20
2018-09-19T21:28:25.408Z,20.33
2018-09-19T21:30:54.392Z,20.67
2018-09-19T21:33:23.311Z,20.70
2018-09-19T21:35:52.669Z,19.80
2018-09-19T21:38:21.686Z,21.63
2018-09-19T21:41:02.428Z,18.93
2018-09-19T21:43:31.360Z,21.93
2018-09-19T21:46:00.252Z,18.83
2018-09-19T21:48:29.139Z,20.63
2018-09-19T21:50:57.970Z,19.33
2018-09-19T21:53:27.786Z,20.83
2018-09-19T21:55:57.454Z,20.90
2018-09-19T21:58:26.315Z,20.37
2018-09-19T22:01:00.818Z,21.50
2018-09-19T22:03:29.641Z,19.77
2018-09-19T22:05:58.612Z,21.33
2018-09-19T22:08:27.535Z,19.07
2018-09-19T22:10:56.352Z,20.77
2018-09-19T22:13:25.178Z,21.07
2018-09-19T22:15:54.902Z,20.60
2018-09-19T22:18:24.399Z,18.77
2018-09-19T22:20:54.306Z,18.20
2018-09-19T22:23:23.183Z,21.37
2018-09-19T22:25:52.023Z,20.97
2018-09-19T22:28:21.175Z,20.77
2018-09-19T22:30:49.984Z,19.43
2018-09-19T22:33:18.809Z,19.30
2018-09-19T22:35:47.650Z,19.10
2018-09-19T22:38:16.481Z,21.57
2018-09-19T22:40:45.395Z,19.50
2018-09-19T22:43:14.176Z,18.83
2018-09-19T22:45:43.034Z,19.10
2018-09-19T22:48:11.906Z,20.23
2018-09-19T22:50:40.769Z,18.83
2018-09-19T22:53:09.571Z,18.70
2018-09-19T22:55:38.364Z,19.97
2018-09-19T22:58:07.274Z,19.60
2018-09-19T23:00:36.122Z,18.93
2018-09-19T23:03:05.218Z,19.27
2018-09-19T23:05:34.079Z,18.33
2018-09-19T23:08:02.886Z,19.97
2018-09-19T23:10:31.807Z,19.57
2018-09-19T23:13:00.634Z,19.90
2018-09-19T23:15:29.564Z,18.67
2018-09-19T23:17:58.375Z,16.67
2018-09-19T23:20:27.206Z,18.33
2018-09-19T23:22:56.014Z,17.30
2018-09-19T23:25:24.879Z,20.53
2018-09-19T23:27:53.811Z,18.43
2018-09-19T23:30:22.662Z,17.60
2018-09-19T23:32:51.459Z,18.93
2018-09-19T23:35:20.415Z,21.27
2018-09-19T23:37:49.198Z,18.00
2018-09-19T23:40:18.008Z,17.43
2018-09-19T23:42:46.851Z,18.40
2018-09-19T23:45:15.736Z,17.97
2018-09-19T23:47:44.562Z,18.77
2018-09-19T23:50:13.441Z,18.50
2018-09-19T23:52:42.238Z,16.93
2018-09-19T23:55:11.068Z,17.50
2018-09-19T23:57:40.057Z,17.27
